sensor_id;sensor_type;location;lat;lon;timestamp;pressure;altitude;pressure_sealevel;temperature;humidity
11347;BME280;5728;42.722;23.258;2022-07-29T00:01:23;94918.56;;;20.57;87.39
11347;BME280;5728;42.722;23.258;2022-07-29T00:03:50;94918.56;;;20.57;87.82
11347;BME280;5728;42.722;23.258;2022-07-29T00:06:17;94924.56;;;20.44;88.48
11347;BME280;5728;42.722;23.258;2022-07-29T00:08:45;94926.41;;;20.59;87.39
11347;BME280;5728;42.722;23.258;2022-07-29T00:11:12;94921.56;;;20.67;87.03
11347;BME280;5728;42.722;23.258;2022-07-29T00:13:38;94907.72;;;20.63;86.99
11347;BME280;5728;42.722;23.258;2022-07-29T00:16:05;94915.59;;;20.80;85.83
11347;BME280;5728;42.722;23.258;2022-07-29T00:18:32;94918.16;;;20.82;85.97
11347;BME280;5728;42.722;23.258;2022-07-29T00:20:59;94908.81;;;20.76;86.05
11347;BME280;5728;42.722;23.258;2022-07-29T00:23:25;94917.94;;;20.86;85.89
11347;BME280;5728;42.722;23.258;2022-07-29T00:25:54;94920.22;;;20.92;84.96
11347;BME280;5728;42.722;23.258;2022-07-29T00:28:20;94934.75;;;20.67;86.28
11347;BME280;5728;42.722;23.258;2022-07-29T00:30:47;94926.81;;;20.34;87.85
11347;BME280;5728;42.722;23.258;2022-07-29T00:33:14;94934.56;;;20.37;88.23
11347;BME280;5728;42.722;23.258;2022-07-29T00:35:41;94934.25;;;20.26;88.28
11347;BME280;5728;42.722;23.258;2022-07-29T00:38:09;94941.22;;;20.27;88.03
11347;BME280;5728;42.722;23.258;2022-07-29T00:40:36;94931.97;;;20.18;88.08
11347;BME280;5728;42.722;23.258;2022-07-29T00:43:04;94931.47;;;19.93;89.10
11347;BME280;5728;42.722;23.258;2022-07-29T00:45:31;94926.03;;;19.43;91.18
11347;BME280;5728;42.722;23.258;2022-07-29T00:47:57;94932.75;;;19.30;93.19
11347;BME280;5728;42.722;23.258;2022-07-29T00:50:24;94927.09;;;19.19;93.44
11347;BME280;5728;42.722;23.258;2022-07-29T00:52:52;94931.16;;;19.26;94.28
11347;BME280;5728;42.722;23.258;2022-07-29T00:55:19;94927.34;;;19.33;93.47
11347;BME280;5728;42.722;23.258;2022-07-29T00:57:46;94925.44;;;19.37;92.63
11347;BME280;5728;42.722;23.258;2022-07-29T01:00:17;94921.16;;;19.53;92.10
11347;BME280;5728;42.722;23.258;2022-07-29T01:02:44;94926.53;;;19.31;92.57
11347;BME280;5728;42.722;23.258;2022-07-29T01:05:15;94919.38;;;19.35;93.25
11347;BME280;5728;42.722;23.258;2022-07-29T01:07:43;94905.13;;;19.40;92.09
11347;BME280;5728;42.722;23.258;2022-07-29T01:10:12;94905.50;;;19.68;90.11
11347;BME280;5728;42.722;23.258;2022-07-29T01:12:40;94902.69;;;19.54;90.87
11347;BME280;5728;42.722;23.258;2022-07-29T01:15:10;94899.28;;;19.52;91.78
11347;BME280;5728;42.722;23.258;2022-07-29T01:17:43;94898.03;;;19.59;91.58
11347;BME280;5728;42.722;23.258;2022-07-29T01:20:14;94900.69;;;19.77;90.33
11347;BME280;5728;42.722;23.258;2022-07-29T01:23:11;94897.38;;;19.73;90.55
11347;BME280;5728;42.722;23.258;2022-07-29T01:25:53;94892.22;;;19.89;89.00
11347;BME280;5728;42.722;23.258;2022-07-29T01:31:20;94883.63;;;19.85;89.27
11347;BME280;5728;42.722;23.258;2022-07-29T01:33:55;94888.97;;;19.84;89.44
11347;BME280;5728;42.722;23.258;2022-07-29T01:36:28;94895.94;;;19.85;89.07
11347;BME280;5728;42.722;23.258;2022-07-29T01:39:01;94896.63;;;19.52;90.81
11347;BME280;5728;42.722;23.258;2022-07-29T01:41:31;94890.31;;;19.19;93.57
11347;BME280;5728;42.722;23.258;2022-07-29T01:44:02;94894.78;;;18.98;94.94
11347;BME280;5728;42.722;23.258;2022-07-29T01:46:37;94882.50;;;18.80;96.17
11347;BME280;5728;42.722;23.258;2022-07-29T01:49:09;94891.94;;;18.84;97.18
11347;BME280;5728;42.722;23.258;2022-07-29T01:51:41;94882.28;;;18.85;97.30
11347;BME280;5728;42.722;23.258;2022-07-29T01:54:13;94881.81;;;18.95;96.59
11347;BME280;5728;42.722;23.258;2022-07-29T01:56:42;94881.72;;;18.97;96.61
11347;BME280;5728;42.722;23.258;2022-07-29T01:59:11;94886.75;;;18.83;97.02
11347;BME280;5728;42.722;23.258;2022-07-29T02:01:40;94882.16;;;18.49;99.74
11347;BME280;5728;42.722;23.258;2022-07-29T02:04:10;94893.69;;;18.25;100.00
11347;BME280;5728;42.722;23.258;2022-07-29T02:06:38;94888.91;;;18.34;100.00
11347;BME280;5728;42.722;23.258;2022-07-29T02:09:07;94885.97;;;18.40;100.00
11347;BME280;5728;42.722;23.258;2022-07-29T02:11:36;94880.09;;;18.35;100.00
11347;BME280;5728;42.722;23.258;2022-07-29T02:14:05;94884.69;;;18.51;100.00
11347;BME280;5728;42.722;23.258;2022-07-29T02:16:37;94881.78;;;18.77;98.84
11347;BME280;5728;42.722;23.258;2022-07-29T02:19:05;94862.88;;;19.06;97.78
11347;BME280;5728;42.722;23.258;2022-07-29T02:21:35;94867.41;;;19.21;96.67
11347;BME280;5728;42.722;23.258;2022-07-29T02:24:03;94867.69;;;19.34;94.95
11347;BME280;5728;42.722;23.258;2022-07-29T02:26:32;94867.41;;;19.58;94.62
11347;BME280;5728;42.722;23.258;2022-07-29T02:29:00;94867.69;;;19.71;92.90
11347;BME280;5728;42.722;23.258;2022-07-29T02:31:31;94856.25;;;19.35;94.05
11347;BME280;5728;42.722;23.258;2022-07-29T02:34:01;94857.16;;;19.34;94.14
11347;BME280;5728;42.722;23.258;2022-07-29T02:36:29;94852.91;;;19.31;94.14
11347;BME280;5728;42.722;23.258;2022-07-29T02:38:58;94858.91;;;19.53;93.81
11347;BME280;5728;42.722;23.258;2022-07-29T02:41:28;94854.03;;;19.63;93.22
11347;BME280;5728;42.722;23.258;2022-07-29T02:43:57;94869.69;;;19.66;92.75
11347;BME280;5728;42.722;23.258;2022-07-29T02:46:28;94864.53;;;19.46;93.59
11347;BME280;5728;42.722;23.258;2022-07-29T02:49:02;94855.91;;;19.61;93.79
11347;BME280;5728;42.722;23.258;2022-07-29T02:51:36;94857.06;;;19.72;93.16
11347;BME280;5728;42.722;23.258;2022-07-29T02:54:07;94856.53;;;20.00;91.96
11347;BME280;5728;42.722;23.258;2022-07-29T02:56:36;94854.75;;;20.01;91.94
11347;BME280;5728;42.722;23.258;2022-07-29T02:59:10;94855.84;;;20.14;91.28
11347;BME280;5728;42.722;23.258;2022-07-29T03:01:40;94857.53;;;20.15;90.81
11347;BME280;5728;42.722;23.258;2022-07-29T03:04:12;94858.47;;;19.97;91.62
11347;BME280;5728;42.722;23.258;2022-07-29T03:06:41;94853.81;;;20.02;91.10
11347;BME280;5728;42.722;23.258;2022-07-29T03:09:10;94858.69;;;20.09;90.63
11347;BME280;5728;42.722;23.258;2022-07-29T03:11:38;94862.09;;;19.94;90.57
11347;BME280;5728;42.722;23.258;2022-07-29T03:14:06;94861.91;;;19.99;90.51
11347;BME280;5728;42.722;23.258;2022-07-29T03:16:34;94867.44;;;19.93;90.42
11347;BME280;5728;42.722;23.258;2022-07-29T03:19:03;94864.34;;;20.02;90.35
11347;BME280;5728;42.722;23.258;2022-07-29T03:21:33;94858.47;;;19.97;90.32
11347;BME280;5728;42.722;23.258;2022-07-29T03:24:00;94859.69;;;20.07;90.15
11347;BME280;5728;42.722;23.258;2022-07-29T03:26:27;94854.75;;;20.01;90.42
11347;BME280;5728;42.722;23.258;2022-07-29T03:28:54;94860.03;;;20.01;90.80
11347;BME280;5728;42.722;23.258;2022-07-29T03:31:21;94859.03;;;19.86;91.37
11347;BME280;5728;42.722;23.258;2022-07-29T03:33:48;94867.78;;;19.32;94.21
11347;BME280;5728;42.722;23.258;2022-07-29T03:36:15;94868.31;;;19.40;94.27
11347;BME280;5728;42.722;23.258;2022-07-29T03:38:44;94874.13;;;19.28;95.48
11347;BME280;5728;42.722;23.258;2022-07-29T03:41:13;94873.63;;;19.20;95.90
11347;BME280;5728;42.722;23.258;2022-07-29T03:43:41;94869.84;;;19.44;94.85
11347;BME280;5728;42.722;23.258;2022-07-29T03:46:10;94871.75;;;19.59;94.31
11347;BME280;5728;42.722;23.258;2022-07-29T03:48:42;94876.41;;;19.71;94.24
11347;BME280;5728;42.722;23.258;2022-07-29T03:51:13;94883.84;;;19.81;92.86
11347;BME280;5728;42.722;23.258;2022-07-29T03:53:40;94879.88;;;19.72;93.27
11347;BME280;5728;42.722;23.258;2022-07-29T03:56:10;94882.84;;;19.47;93.95
11347;BME280;5728;42.722;23.258;2022-07-29T03:58:38;94879.47;;;19.08;94.92
11347;BME280;5728;42.722;23.258;2022-07-29T04:01:06;94881.09;;;19.10;95.46
11347;BME280;5728;42.722;23.258;2022-07-29T04:03:33;94875.66;;;19.32;95.35
11347;BME280;5728;42.722;23.258;2022-07-29T04:06:02;94884.03;;;19.59;94.02
11347;BME280;5728;42.722;23.258;2022-07-29T04:08:31;94879.50;;;19.62;93.15
11347;BME280;5728;42.722;23.258;2022-07-29T04:10:58;94879.38;;;20.00;91.96
11347;BME280;5728;42.722;23.258;2022-07-29T04:13:26;94873.66;;;20.09;91.70
11347;BME280;5728;42.722;23.258;2022-07-29T04:15:53;94875.66;;;20.55;89.47
11347;BME280;5728;42.722;23.258;2022-07-29T04:18:20;94865.81;;;20.91;87.95
11347;BME280;5728;42.722;23.258;2022-07-29T04:20:47;94878.88;;;21.10;86.94
11347;BME280;5728;42.722;23.258;2022-07-29T04:23:13;94874.72;;;21.22;85.88
11347;BME280;5728;42.722;23.258;2022-07-29T04:25:41;94879.47;;;21.31;84.66
11347;BME280;5728;42.722;23.258;2022-07-29T04:28:09;94881.88;;;21.35;84.70
11347;BME280;5728;42.722;23.258;2022-07-29T04:30:38;94882.53;;;21.08;84.82
11347;BME280;5728;42.722;23.258;2022-07-29T04:33:06;94880.69;;;20.92;86.36
11347;BME280;5728;42.722;23.258;2022-07-29T04:35:35;94887.16;;;20.70;87.19
11347;BME280;5728;42.722;23.258;2022-07-29T04:38:03;94883.31;;;20.92;87.46
11347;BME280;5728;42.722;23.258;2022-07-29T04:40:30;94890.16;;;20.96;86.42
11347;BME280;5728;42.722;23.258;2022-07-29T04:42:58;94896.78;;;21.04;86.70
11347;BME280;5728;42.722;23.258;2022-07-29T04:45:25;94895.22;;;21.17;85.56
11347;BME280;5728;42.722;23.258;2022-07-29T04:47:53;94895.88;;;20.87;86.05
11347;BME280;5728;42.722;23.258;2022-07-29T04:50:20;94900.41;;;20.85;86.69
11347;BME280;5728;42.722;23.258;2022-07-29T04:52:47;94908.41;;;20.84;86.75
11347;BME280;5728;42.722;23.258;2022-07-29T04:55:14;94901.50;;;20.81;86.79
11347;BME280;5728;42.722;23.258;2022-07-29T04:57:41;94895.84;;;20.72;86.75
11347;BME280;5728;42.722;23.258;2022-07-29T05:00:09;94900.09;;;20.91;86.79
11347;BME280;5728;42.722;23.258;2022-07-29T05:02:36;94898.69;;;21.17;85.89
11347;BME280;5728;42.722;23.258;2022-07-29T05:05:04;94897.69;;;21.35;84.44
11347;BME280;5728;42.722;23.258;2022-07-29T05:07:31;94900.84;;;20.93;85.41
11347;BME280;5728;42.722;23.258;2022-07-29T05:09:58;94901.59;;;20.63;87.25
11347;BME280;5728;42.722;23.258;2022-07-29T05:12:25;94910.88;;;20.70;87.97
11347;BME280;5728;42.722;23.258;2022-07-29T05:14:52;94907.03;;;20.92;86.37
11347;BME280;5728;42.722;23.258;2022-07-29T05:17:19;94902.31;;;21.32;84.46
11347;BME280;5728;42.722;23.258;2022-07-29T05:19:45;94910.31;;;21.77;83.91
11347;BME280;5728;42.722;23.258;2022-07-29T05:22:14;94909.75;;;22.17;81.67
11347;BME280;5728;42.722;23.258;2022-07-29T05:24:40;94909.09;;;22.58;79.95
11347;BME280;5728;42.722;23.258;2022-07-29T05:27:07;94907.84;;;22.79;79.19
11347;BME280;5728;42.722;23.258;2022-07-29T05:29:34;94905.50;;;23.03;77.10
11347;BME280;5728;42.722;23.258;2022-07-29T05:32:02;94904.06;;;22.97;77.18
11347;BME280;5728;42.722;23.258;2022-07-29T05:34:29;94909.38;;;22.83;77.50
11347;BME280;5728;42.722;23.258;2022-07-29T05:36:56;94910.13;;;23.13;76.17
11347;BME280;5728;42.722;23.258;2022-07-29T05:39:24;94906.63;;;23.27;76.58
11347;BME280;5728;42.722;23.258;2022-07-29T05:41:51;94912.59;;;23.44;75.27
11347;BME280;5728;42.722;23.258;2022-07-29T05:44:18;94922.94;;;22.77;76.23
11347;BME280;5728;42.722;23.258;2022-07-29T05:46:44;94917.41;;;22.22;79.48
11347;BME280;5728;42.722;23.258;2022-07-29T05:49:11;94927.38;;;22.47;79.16
11347;BME280;5728;42.722;23.258;2022-07-29T05:51:38;94929.75;;;22.51;77.80
11347;BME280;5728;42.722;23.258;2022-07-29T05:54:05;94920.78;;;22.54;79.66
11347;BME280;5728;42.722;23.258;2022-07-29T05:56:35;94918.44;;;23.35;76.04
11347;BME280;5728;42.722;23.258;2022-07-29T05:59:02;94918.91;;;23.14;76.35
11347;BME280;5728;42.722;23.258;2022-07-29T06:01:29;94925.78;;;23.73;75.41
11347;BME280;5728;42.722;23.258;2022-07-29T06:03:56;94922.38;;;23.97;73.45
11347;BME280;5728;42.722;23.258;2022-07-29T06:06:23;94926.44;;;24.30;72.17
11347;BME280;5728;42.722;23.258;2022-07-29T06:08:50;94927.06;;;24.72;71.55
11347;BME280;5728;42.722;23.258;2022-07-29T06:11:17;94921.81;;;24.98;70.09
11347;BME280;5728;42.722;23.258;2022-07-29T06:13:45;94927.97;;;25.36;69.28
11347;BME280;5728;42.722;23.258;2022-07-29T06:16:12;94930.41;;;25.39;68.98
11347;BME280;5728;42.722;23.258;2022-07-29T06:18:39;94925.66;;;25.31;67.96
11347;BME280;5728;42.722;23.258;2022-07-29T06:21:08;94931.25;;;25.65;68.09
11347;BME280;5728;42.722;23.258;2022-07-29T06:23:35;94930.69;;;26.09;66.57
11347;BME280;5728;42.722;23.258;2022-07-29T06:26:03;94936.00;;;26.09;65.58
11347;BME280;5728;42.722;23.258;2022-07-29T06:28:31;94923.50;;;26.34;64.08
11347;BME280;5728;42.722;23.258;2022-07-29T06:30:59;94923.06;;;26.04;64.34
11347;BME280;5728;42.722;23.258;2022-07-29T06:33:26;94928.94;;;25.96;66.25
11347;BME280;5728;42.722;23.258;2022-07-29T06:35:53;94926.91;;;26.13;65.48
11347;BME280;5728;42.722;23.258;2022-07-29T06:38:19;94927.66;;;26.49;65.32
11347;BME280;5728;42.722;23.258;2022-07-29T06:40:47;94922.31;;;26.73;63.69
11347;BME280;5728;42.722;23.258;2022-07-29T06:43:31;94920.69;;;26.83;63.20
11347;BME280;5728;42.722;23.258;2022-07-29T06:46:05;94916.72;;;27.00;62.10
11347;BME280;5728;42.722;23.258;2022-07-29T06:48:32;94919.19;;;27.36;61.50
11347;BME280;5728;42.722;23.258;2022-07-29T06:50:59;94913.47;;;27.30;61.73
11347;BME280;5728;42.722;23.258;2022-07-29T06:53:27;94916.19;;;27.63;59.90
11347;BME280;5728;42.722;23.258;2022-07-29T06:55:54;94930.94;;;27.89;58.49
11347;BME280;5728;42.722;23.258;2022-07-29T06:58:20;94913.75;;;28.04;59.21
11347;BME280;5728;42.722;23.258;2022-07-29T07:00:48;94919.78;;;28.06;58.16
11347;BME280;5728;42.722;23.258;2022-07-29T07:03:17;94909.41;;;27.59;58.55
11347;BME280;5728;42.722;23.258;2022-07-29T07:05:44;94905.34;;;27.98;58.58
11347;BME280;5728;42.722;23.258;2022-07-29T07:08:11;94909.53;;;27.68;54.45
11347;BME280;5728;42.722;23.258;2022-07-29T07:10:38;94910.13;;;27.50;55.36
11347;BME280;5728;42.722;23.258;2022-07-29T07:13:05;94904.06;;;27.26;55.16
11347;BME280;5728;42.722;23.258;2022-07-29T07:15:32;94904.56;;;27.53;55.41
11347;BME280;5728;42.722;23.258;2022-07-29T07:17:59;94902.34;;;28.02;53.35
11347;BME280;5728;42.722;23.258;2022-07-29T07:20:27;94939.66;;;28.02;52.56
11347;BME280;5728;42.722;23.258;2022-07-29T07:22:54;94905.88;;;27.92;52.73
11347;BME280;5728;42.722;23.258;2022-07-29T07:25:21;94902.94;;;28.06;52.33
11347;BME280;5728;42.722;23.258;2022-07-29T07:27:48;94895.03;;;28.15;52.18
11347;BME280;5728;42.722;23.258;2022-07-29T07:30:15;94908.50;;;28.45;51.68
11347;BME280;5728;42.722;23.258;2022-07-29T07:32:42;94896.69;;;28.27;50.55
11347;BME280;5728;42.722;23.258;2022-07-29T07:35:09;94904.75;;;28.16;51.21
11347;BME280;5728;42.722;23.258;2022-07-29T07:37:38;94906.56;;;28.05;53.02
11347;BME280;5728;42.722;23.258;2022-07-29T07:40:08;94902.69;;;28.52;51.01
11347;BME280;5728;42.722;23.258;2022-07-29T07:42:37;94901.84;;;28.40;50.20
11347;BME280;5728;42.722;23.258;2022-07-29T07:45:04;94903.88;;;28.47;50.53
11347;BME280;5728;42.722;23.258;2022-07-29T07:47:31;94897.72;;;28.79;49.73
11347;BME280;5728;42.722;23.258;2022-07-29T07:49:58;94898.19;;;29.04;49.74
11347;BME280;5728;42.722;23.258;2022-07-29T07:52:25;94900.97;;;29.24;48.14
11347;BME280;5728;42.722;23.258;2022-07-29T07:54:53;94894.66;;;29.25;49.04
11347;BME280;5728;42.722;23.258;2022-07-29T07:57:20;94897.09;;;29.28;49.05
11347;BME280;5728;42.722;23.258;2022-07-29T07:59:47;94899.25;;;29.43;48.33
11347;BME280;5728;42.722;23.258;2022-07-29T08:02:14;94894.25;;;29.29;47.80
11347;BME280;5728;42.722;23.258;2022-07-29T08:04:40;94888.56;;;29.43;47.50
11347;BME280;5728;42.722;23.258;2022-07-29T08:07:07;94897.66;;;29.31;48.26
11347;BME280;5728;42.722;23.258;2022-07-29T08:09:35;94894.25;;;29.08;48.48
11347;BME280;5728;42.722;23.258;2022-07-29T08:12:04;94898.19;;;29.55;47.62
11347;BME280;5728;42.722;23.258;2022-07-29T08:14:31;94897.13;;;29.67;46.40
11347;BME280;5728;42.722;23.258;2022-07-29T08:16:58;94889.50;;;29.63;47.05
11347;BME280;5728;42.722;23.258;2022-07-29T08:19:25;94890.91;;;30.07;46.56
11347;BME280;5728;42.722;23.258;2022-07-29T08:21:51;94897.72;;;30.20;46.08
11347;BME280;5728;42.722;23.258;2022-07-29T08:24:18;94904.59;;;30.13;46.28
11347;BME280;5728;42.722;23.258;2022-07-29T08:27:03;94897.31;;;29.45;47.27
11347;BME280;5728;42.722;23.258;2022-07-29T08:29:30;94895.66;;;29.63;47.11
11347;BME280;5728;42.722;23.258;2022-07-29T08:31:56;94900.56;;;29.89;47.05
11347;BME280;5728;42.722;23.258;2022-07-29T08:34:23;94898.56;;;30.21;45.68
11347;BME280;5728;42.722;23.258;2022-07-29T08:36:50;94898.41;;;30.32;45.11
11347;BME280;5728;42.722;23.258;2022-07-29T08:39:17;94887.47;;;30.45;44.73
11347;BME280;5728;42.722;23.258;2022-07-29T08:41:44;94902.19;;;30.01;45.60
11347;BME280;5728;42.722;23.258;2022-07-29T08:44:12;94889.50;;;30.03;45.29
11347;BME280;5728;42.722;23.258;2022-07-29T08:46:39;94892.56;;;30.48;44.45
11347;BME280;5728;42.722;23.258;2022-07-29T08:49:06;94890.72;;;29.80;45.44
11347;BME280;5728;42.722;23.258;2022-07-29T08:51:33;94884.88;;;30.24;45.27
11347;BME280;5728;42.722;23.258;2022-07-29T08:54:02;94893.16;;;30.02;44.69
11347;BME280;5728;42.722;23.258;2022-07-29T08:56:29;94876.47;;;30.28;43.57
11347;BME280;5728;42.722;23.258;2022-07-29T08:58:57;94870.84;;;30.70;43.75
11347;BME280;5728;42.722;23.258;2022-07-29T09:01:27;94873.47;;;30.12;44.29
11347;BME280;5728;42.722;23.258;2022-07-29T09:03:57;94871.13;;;30.67;43.38
11347;BME280;5728;42.722;23.258;2022-07-29T09:06:31;94878.31;;;30.38;44.38
11347;BME280;5728;42.722;23.258;2022-07-29T09:08:59;94874.78;;;30.37;43.85
11347;BME280;5728;42.722;23.258;2022-07-29T09:11:26;94866.06;;;30.73;42.76
11347;BME280;5728;42.722;23.258;2022-07-29T09:13:53;94871.97;;;30.67;42.29
11347;BME280;5728;42.722;23.258;2022-07-29T09:16:20;94862.63;;;31.10;42.15
11347;BME280;5728;42.722;23.258;2022-07-29T09:18:49;94859.59;;;31.78;40.37
11347;BME280;5728;42.722;23.258;2022-07-29T09:21:17;94858.16;;;31.47;40.54
11347;BME280;5728;42.722;23.258;2022-07-29T09:24:06;94871.47;;;31.76;40.05
11347;BME280;5728;42.722;23.258;2022-07-29T09:26:35;94866.66;;;31.79;40.35
11347;BME280;5728;42.722;23.258;2022-07-29T09:29:08;94859.25;;;32.18;39.70
11347;BME280;5728;42.722;23.258;2022-07-29T09:31:38;94857.94;;;32.04;39.28
11347;BME280;5728;42.722;23.258;2022-07-29T09:34:09;94859.84;;;32.57;38.21
11347;BME280;5728;42.722;23.258;2022-07-29T09:36:40;94851.81;;;30.82;40.03
11347;BME280;5728;42.722;23.258;2022-07-29T09:39:08;94855.34;;;30.54;41.41
11347;BME280;5728;42.722;23.258;2022-07-29T09:41:45;94855.69;;;31.17;41.05
11347;BME280;5728;42.722;23.258;2022-07-29T09:44:12;94854.56;;;32.20;38.95
11347;BME280;5728;42.722;23.258;2022-07-29T09:46:40;94850.59;;;32.42;38.30
11347;BME280;5728;42.722;23.258;2022-07-29T09:49:11;94851.16;;;32.63;37.22
11347;BME280;5728;42.722;23.258;2022-07-29T09:51:38;94853.22;;;32.69;36.11
11347;BME280;5728;42.722;23.258;2022-07-29T09:54:23;94849.84;;;32.49;36.04
11347;BME280;5728;42.722;23.258;2022-07-29T09:56:52;94841.81;;;32.67;35.16
11347;BME280;5728;42.722;23.258;2022-07-29T09:59:19;94842.28;;;32.62;35.60
11347;BME280;5728;42.722;23.258;2022-07-29T10:01:49;94840.34;;;32.98;36.41
11347;BME280;5728;42.722;23.258;2022-07-29T10:04:18;94843.69;;;33.35;35.54
11347;BME280;5728;42.722;23.258;2022-07-29T10:06:58;94848.41;;;33.41;34.74
11347;BME280;5728;42.722;23.258;2022-07-29T10:09:26;94829.88;;;33.30;35.02
11347;BME280;5728;42.722;23.258;2022-07-29T10:12:12;94827.13;;;33.22;35.23
11347;BME280;5728;42.722;23.258;2022-07-29T10:14:40;94827.44;;;33.19;35.30
11347;BME280;5728;42.722;23.258;2022-07-29T10:17:09;94822.06;;;33.87;34.75
11347;BME280;5728;42.722;23.258;2022-07-29T10:19:38;94833.75;;;33.62;34.79
11347;BME280;5728;42.722;23.258;2022-07-29T10:22:07;94825.53;;;34.05;34.63
11347;BME280;5728;42.722;23.258;2022-07-29T10:24:34;94810.84;;;34.57;34.66
11347;BME280;5728;42.722;23.258;2022-07-29T10:27:04;94810.44;;;34.44;33.42
11347;BME280;5728;42.722;23.258;2022-07-29T10:29:32;94817.16;;;34.16;33.05
11347;BME280;5728;42.722;23.258;2022-07-29T10:32:13;94806.28;;;33.92;34.29
11347;BME280;5728;42.722;23.258;2022-07-29T10:35:08;94805.94;;;34.53;32.42
11347;BME280;5728;42.722;23.258;2022-07-29T10:40:39;94804.09;;;34.78;32.32
11347;BME280;5728;42.722;23.258;2022-07-29T10:43:28;94794.25;;;35.57;32.32
11347;BME280;5728;42.722;23.258;2022-07-29T10:45:59;94802.34;;;34.20;32.75
11347;BME280;5728;42.722;23.258;2022-07-29T10:48:26;94795.34;;;34.68;33.01
11347;BME280;5728;42.722;23.258;2022-07-29T10:50:59;94797.84;;;35.25;31.84
11347;BME280;5728;42.722;23.258;2022-07-29T10:53:46;94782.72;;;35.08;31.98
11347;BME280;5728;42.722;23.258;2022-07-29T10:56:27;94758.19;;;35.42;30.80
11347;BME280;5728;42.722;23.258;2022-07-29T10:59:22;94777.38;;;35.47;30.58
11347;BME280;5728;42.722;23.258;2022-07-29T11:01:52;94780.16;;;35.23;30.82
11347;BME280;5728;42.722;23.258;2022-07-29T11:07:20;94764.41;;;36.43;29.18
11347;BME280;5728;42.722;23.258;2022-07-29T11:12:52;94755.16;;;35.37;30.16
11347;BME280;5728;42.722;23.258;2022-07-29T11:15:21;94747.34;;;35.50;30.58
11347;BME280;5728;42.722;23.258;2022-07-29T11:18:06;94758.22;;;35.34;30.46
11347;BME280;5728;42.722;23.258;2022-07-29T11:20:34;94757.34;;;35.80;29.61
11347;BME280;5728;42.722;23.258;2022-07-29T11:23:17;94744.34;;;35.84;29.75
11347;BME280;5728;42.722;23.258;2022-07-29T11:25:44;94751.03;;;36.27;29.29
11347;BME280;5728;42.722;23.258;2022-07-29T11:28:16;94754.56;;;36.05;29.37
11347;BME280;5728;42.722;23.258;2022-07-29T11:30:47;94759.22;;;36.11;28.95
11347;BME280;5728;42.722;23.258;2022-07-29T11:33:27;94750.97;;;36.12;29.34
11347;BME280;5728;42.722;23.258;2022-07-29T11:36:08;94752.59;;;36.44;29.03
11347;BME280;5728;42.722;23.258;2022-07-29T11:38:37;94750.59;;;36.61;29.28
11347;BME280;5728;42.722;23.258;2022-07-29T11:41:23;94738.47;;;36.79;28.53
11347;BME280;5728;42.722;23.258;2022-07-29T11:43:51;94745.56;;;36.80;28.45
11347;BME280;5728;42.722;23.258;2022-07-29T11:46:43;94747.41;;;37.02;27.74
11347;BME280;5728;42.722;23.258;2022-07-29T11:49:11;94749.19;;;37.54;27.37
11347;BME280;5728;42.722;23.258;2022-07-29T11:51:39;94736.34;;;36.89;27.80
11347;BME280;5728;42.722;23.258;2022-07-29T11:54:12;94737.16;;;37.56;27.15
11347;BME280;5728;42.722;23.258;2022-07-29T11:56:41;94743.13;;;37.23;27.26
11347;BME280;5728;42.722;23.258;2022-07-29T11:59:11;94742.72;;;36.96;28.17
11347;BME280;5728;42.722;23.258;2022-07-29T12:01:51;94735.41;;;36.82;28.20
11347;BME280;5728;42.722;23.258;2022-07-29T12:04:18;94724.03;;;36.87;28.79
11347;BME280;5728;42.722;23.258;2022-07-29T12:06:49;94722.78;;;36.97;27.79
11347;BME280;5728;42.722;23.258;2022-07-29T12:09:17;94721.59;;;37.44;28.26
11347;BME280;5728;42.722;23.258;2022-07-29T12:11:45;94724.09;;;37.60;27.55
11347;BME280;5728;42.722;23.258;2022-07-29T12:14:24;94712.63;;;38.08;27.16
11347;BME280;5728;42.722;23.258;2022-07-29T12:16:52;94721.88;;;37.99;27.00
11347;BME280;5728;42.722;23.258;2022-07-29T12:19:18;94719.06;;;38.43;26.45
11347;BME280;5728;42.722;23.258;2022-07-29T12:21:46;94721.72;;;36.98;27.94
11347;BME280;5728;42.722;23.258;2022-07-29T12:24:14;94733.03;;;37.90;27.06
11347;BME280;5728;42.722;23.258;2022-07-29T12:26:50;94728.69;;;36.56;28.36
11347;BME280;5728;42.722;23.258;2022-07-29T12:29:17;94715.69;;;35.44;30.16
11347;BME280;5728;42.722;23.258;2022-07-29T12:31:45;94726.84;;;36.56;28.69
11347;BME280;5728;42.722;23.258;2022-07-29T12:34:12;94714.88;;;37.11;27.37
11347;BME280;5728;42.722;23.258;2022-07-29T12:36:40;94707.13;;;36.70;27.66
11347;BME280;5728;42.722;23.258;2022-07-29T12:39:07;94708.53;;;37.33;27.53
11347;BME280;5728;42.722;23.258;2022-07-29T12:41:34;94708.09;;;36.77;26.99
11347;BME280;5728;42.722;23.258;2022-07-29T12:44:02;94718.03;;;36.99;27.05
11347;BME280;5728;42.722;23.258;2022-07-29T12:46:29;94714.84;;;37.69;26.47
11347;BME280;5728;42.722;23.258;2022-07-29T12:48:56;94706.75;;;37.54;26.15
11347;BME280;5728;42.722;23.258;2022-07-29T12:51:30;94701.69;;;37.37;25.97
11347;BME280;5728;42.722;23.258;2022-07-29T12:54:08;94694.50;;;38.09;25.80
11347;BME280;5728;42.722;23.258;2022-07-29T12:56:36;94695.50;;;37.87;25.60
11347;BME280;5728;42.722;23.258;2022-07-29T12:59:13;94681.94;;;38.22;25.71
11347;BME280;5728;42.722;23.258;2022-07-29T13:01:40;94681.94;;;37.51;26.65
11347;BME280;5728;42.722;23.258;2022-07-29T13:04:07;94681.28;;;37.49;26.85
11347;BME280;5728;42.722;23.258;2022-07-29T13:06:37;94690.19;;;37.64;25.58
11347;BME280;5728;42.722;23.258;2022-07-29T13:09:09;94679.72;;;37.90;25.82
11347;BME280;5728;42.722;23.258;2022-07-29T13:11:38;94669.63;;;37.99;25.06
11347;BME280;5728;42.722;23.258;2022-07-29T13:14:06;94678.28;;;36.48;27.74
11347;BME280;5728;42.722;23.258;2022-07-29T13:16:36;94664.38;;;36.14;27.58
11347;BME280;5728;42.722;23.258;2022-07-29T13:19:05;94663.44;;;35.99;28.77
11347;BME280;5728;42.722;23.258;2022-07-29T13:21:31;94664.84;;;37.21;26.99
11347;BME280;5728;42.722;23.258;2022-07-29T13:23:58;94669.59;;;36.90;27.15